Latest Weather Observations for Snowtown

IDS60801

Issued at 10:01 am CST Wednesday 29 July 2015 (issued every 30 minutes, with the page automatically refreshed every 10 minutes)

About weather observations | Map of weather stations | Latest weather observations for SA | Other Formats
Station Details ID: 021133 Name: RAYVILLE PARK Lat: -33.77 Lon: 138.22 Height: 109.1 m
Data from the previous 72 hours. | See also: Recent months at Snowtown
Date/Time
CST
Temp
°C
App
Temp
°C
Dew
Point
Rel
Hum
%
Delta-T
°C
Wind Press
QNH
hPa
Press
MSL
hPa
Rain
since 9 am
mm
Dir
 
Spd
km/h
Gust
km/h
Spd
kts
Gust
kts
29/10:00am 8.2 2.4 4.2 76 1.7 N 24 33 13 18 1031.5 1031.7 0.0
29/09:30am 6.7 1.2 3.9 82 1.2 NNE 22 28 12 15 1030.9 1031.1 0.0
29/09:00am 5.2 0.2 3.7 90 0.6 NNE 19 22 10 12 1031.0 1031.2 0.2
29/08:30am 4.9 0.6 3.4 90 0.6 NE 15 22 8 12 1031.2 1031.4 0.2
29/08:00am 5.0 0.3 3.3 89 0.7 NNE 17 20 9 11 1031.9 1032.1 0.2
29/07:30am 4.9 -0.4 2.9 87 0.8 NNE 20 22 11 12 1031.7 1031.9 0.2
29/07:00am 4.0 -1.2 2.7 91 0.5 NNE 19 20 10 11 1031.1 1031.3 0.2
29/06:30am 3.6 -1.8 2.3 91 0.5 N 20 22 11 12 1030.9 1031.1 0.2
29/06:00am 4.1 -1.3 2.5 89 0.6 NNE 20 24 11 13 1030.5 1030.7 0.2
29/05:30am 3.6 -1.3 2.1 90 0.6 N 17 19 9 10 1031.2 1031.4 0.2
29/05:00am 4.3 -0.5 2.5 88 0.7 N 17 20 9 11 1031.0 1031.2 0.2
29/04:30am 3.9 -0.9 2.6 91 0.5 N 17 20 9 11 1030.9 1031.1 0.2
29/04:00am 4.0 -1.2 2.4 89 0.6 N 19 20 10 11 1031.1 1031.3 0.2
29/03:30am 4.7 -0.6 3.2 90 0.6 N 20 24 11 13 1031.1 1031.3 0.2
29/03:00am 2.8 -1.8 1.5 91 0.5 NNE 15 19 8 10 1031.2 1031.4 0.2
29/02:30am 4.5 -0.6 2.8 89 0.7 NNE 19 20 10 11 1031.3 1031.5 0.2
29/02:00am 3.1 -1.7 2.5 96 0.2 NNE 17 19 9 10 1031.5 1031.7 0.2
29/01:30am 3.0 -1.5 2.3 95 0.3 N 15 17 8 9 1031.8 1032.0 0.2
29/01:00am 3.2 -0.9 2.5 95 0.3 N 13 17 7 9 1031.8 1032.0 0.2
29/12:30am 3.1 -0.6 2.1 93 0.4 N 11 15 6 8 1032.5 1032.6 0.2
29/12:00am 5.2 0.6 3.5 89 0.7 NNE 17 20 9 11 1032.6 1032.7 0.2
 
Date/Time
CST
Temp
°C
App
Temp
°C
Dew
Point
Rel
Hum
%
Delta-T
°C
Wind Press
QNH
hPa
Press
MSL
hPa
Rain
since 9 am
mm
Dir
 
Spd
km/h
Gust
km/h
Spd
kts
Gust
kts
28/11:30pm 5.1 0.9 3.6 90 0.6 NNE 15 19 8 10 1033.4 1033.6 0.2
28/11:00pm 4.9 0.7 3.9 93 0.4 NW 15 17 8 9 1033.7 1033.9 0.2
28/10:30pm 3.3 0.0 2.6 95 0.3 WNW 9 13 5 7 1033.9 1034.1 0.2
28/10:00pm 3.6 0.7 2.7 94 0.4 WNW 7 9 4 5 1034.3 1034.5 0.2
28/09:30pm 3.8 0.6 2.9 94 0.4 WNW 9 11 5 6 1034.4 1034.6 0.2
28/09:00pm 4.2 1.1 3.5 95 0.3 WNW 9 11 5 6 1034.3 1034.5 0.2
28/08:30pm 4.0 2.5 2.8 92 0.5 CALM 0 0 0 0 1034.3 1034.5 0.2
28/08:00pm 4.5 3.1 3.6 94 0.4 CALM 0 4 0 2 1034.2 1034.4 0.2
28/07:30pm 4.9 2.7 3.2 89 0.7 WNW 4 7 2 4 1034.2 1034.4 0.2
28/07:00pm 5.8 3.5 4.6 92 0.5 WNW 6 9 3 5 1034.1 1034.3 0.2
28/06:30pm 6.5 2.9 5.1 91 0.6 WNW 13 15 7 8 1034.0 1034.2 0.2
28/06:00pm 8.5 5.5 6.0 84 1.1 W 11 13 6 7 1034.3 1034.5 0.2
28/05:30pm 11.4 10.9 7.9 79 1.7 CALM 0 0 0 0 1034.3 1034.5 0.2
28/05:00pm 11.9 11.1 6.6 70 2.5 CALM 0 0 0 0 1034.1 1034.3 0.2
28/04:30pm 12.3 10.6 5.7 64 3.1 N 4 7 2 4 1034.2 1034.4 0.2
28/04:00pm 13.6 11.1 4.7 55 4.1 N 7 11 4 6 1034.2 1034.4 0.2
28/03:30pm 14.0 11.0 5.9 58 3.8 NNW 11 19 6 10 1034.2 1034.4 0.2
28/03:00pm 13.4 10.3 3.8 52 4.3 NNE 9 13 5 7 1034.1 1034.3 0.0
28/02:30pm 12.6 10.4 5.3 61 3.4 NNE 6 7 3 4 1034.3 1034.5 0.0
28/02:00pm 12.8 10.0 5.2 60 3.5 NNW 9 15 5 8 1034.7 1034.9 0.0
28/01:30pm 12.9 9.9 5.8 62 3.3 N 11 17 6 9 1035.2 1035.4 0.0
28/01:00pm 12.7 10.0 5.4 61 3.4 N 9 13 5 7 1035.7 1035.9 0.0
28/12:30pm 12.4 10.2 6.2 66 2.9 NNE 7 11 4 6 1036.6 1036.8 0.0
28/12:00pm 11.9 9.7 6.2 68 2.7 NE 7 13 4 7 1037.0 1037.2 0.0
28/11:30am 11.4 8.8 6.1 70 2.5 N 9 11 5 6 1037.6 1037.8 0.0
28/11:00am 10.4 7.1 6.5 77 1.8 N 13 15 7 8 1038.0 1038.2 0.0
28/10:30am 9.3 6.1 6.7 84 1.2 N 13 17 7 9 1038.2 1038.4 0.0
28/10:00am 8.0 4.7 6.6 91 0.6 N 13 17 7 9 1038.1 1038.3 0.0
28/09:30am 5.9 2.7 5.3 96 0.3 N 11 13 6 7 1038.1 1038.3 0.0
28/09:00am 4.5 0.8 4.4 99 0.0 NNE 13 17 7 9 1037.9 1038.1 2.8
28/08:30am 3.4 -0.1 3.3 99 0.0 N 11 13 6 7 1038.2 1038.4 2.8
28/08:00am 1.5 -2.7 1.4 99 0.0 N 13 13 7 7 1038.3 1038.5 2.8
28/07:30am 0.5 -3.9 0.4 99 0.0 N 13 13 7 7 1038.3 1038.5 2.8
28/07:00am 0.5 -3.5 0.4 99 0.0 N 11 13 6 7 1038.1 1038.3 2.8
28/06:30am 1.1 -3.6 1.0 99 0.0 NNE 15 17 8 9 1037.8 1038.0 2.8
28/06:00am -0.4 -3.6 -0.5 99 0.0 NNW 6 7 3 4 1037.5 1037.7 2.8
28/05:30am -0.3 -4.1 -0.6 98 0.1 NNW 9 11 5 6 1037.0 1037.2 2.8
28/05:00am 0.2 -3.5 0.1 99 0.0 NNW 9 13 5 7 1036.8 1037.0 2.8
28/04:30am 0.7 -3.3 0.6 99 0.0 NNW 11 13 6 7 1036.6 1036.8 2.8
28/04:00am 1.3 -2.6 1.2 99 0.0 N 11 15 6 8 1036.7 1036.9 2.8
28/03:30am 0.7 -2.9 0.4 98 0.1 NE 9 13 5 7 1036.7 1036.9 2.8
28/03:00am 1.0 -3.3 0.7 98 0.1 N 13 15 7 8 1036.6 1036.8 2.8
28/02:30am 1.3 -2.2 1.0 98 0.1 NNW 9 13 5 7 1036.6 1036.8 2.8
28/02:00am 1.4 -3.3 1.1 98 0.1 N 15 17 8 9 1036.7 1036.9 2.8
28/01:30am 2.0 -2.2 1.6 97 0.2 SSE 13 17 7 9 1036.6 1036.8 2.6
28/01:00am 3.2 0.5 2.8 97 0.2 SSW 6 9 3 5 1036.6 1036.8 2.6
28/12:30am 3.9 1.4 3.6 98 0.1 SW 6 9 3 5 1036.7 1036.9 2.6
28/12:00am 3.0 -0.6 2.7 98 0.1 SW 11 13 6 7 1036.7 1036.9 2.6
 
Date/Time
CST
Temp
°C
App
Temp
°C
Dew
Point
Rel
Hum
%
Delta-T
°C
Wind Press
QNH
hPa
Press
MSL
hPa
Rain
since 9 am
mm
Dir
 
Spd
km/h
Gust
km/h
Spd
kts
Gust
kts
27/11:30pm 2.0 -1.1 1.6 97 0.2 SW 7 7 4 4 1036.5 1036.7 2.6
27/11:00pm 2.3 -1.1 1.9 97 0.2 SW 9 13 5 7 1036.7 1036.9 2.6
27/10:30pm 2.6 -1.2 2.0 96 0.2 SW 11 13 6 7 1036.7 1036.9 2.6
27/10:00pm 3.4 0.2 2.8 96 0.2 SW 9 11 5 6 1036.7 1036.9 2.6
27/09:30pm 4.2 0.7 3.6 96 0.2 SW 11 13 6 7 1036.7 1036.9 2.6
27/09:00pm 4.7 2.1 4.3 97 0.2 SW 7 11 4 6 1036.7 1036.9 2.6
27/08:30pm 5.1 2.8 4.7 97 0.2 SW 6 7 3 4 1036.5 1036.7 2.6
27/08:00pm 5.4 3.1 4.7 95 0.3 SW 6 9 3 5 1036.4 1036.6 2.6
27/07:30pm 7.6 6.8 6.7 94 0.4 CALM 0 0 0 0 1036.4 1036.6 2.6
27/07:00pm 8.2 5.9 7.3 94 0.4 SW 9 11 5 6 1036.3 1036.5 2.6
27/06:30pm 8.3 6.1 7.7 96 0.3 W 9 13 5 7 1035.8 1036.0 2.6
27/06:00pm 8.5 6.3 7.9 96 0.3 S 9 11 5 6 1035.8 1036.0 2.4
27/05:30pm 9.0 6.1 8.2 95 0.4 S 13 15 7 8 1035.5 1035.7 1.6
27/05:00pm 9.1 6.6 8.3 95 0.4 SSW 11 15 6 8 1035.4 1035.6 1.4
27/04:30pm 10.4 7.8 7.8 84 1.2 W 11 17 6 9 1035.1 1035.3 0.8
27/04:00pm 9.8 7.4 8.7 93 0.5 NNW 11 15 6 8 1034.9 1035.1 0.8
27/03:30pm 9.5 5.9 8.4 93 0.5 NW 17 22 9 12 1034.7 1034.9 0.8
27/03:00pm 10.7 6.5 8.3 85 1.2 W 20 26 11 14 1034.7 1034.9 0.0
27/02:30pm 11.4 7.6 5.9 69 2.5 W 15 22 8 12 1034.3 1034.5 0.0
27/02:00pm 11.8 9.0 5.2 64 3.1 SSW 9 15 5 8 1034.3 1034.5 0.0
27/01:30pm 12.1 9.8 4.8 61 3.3 SW 6 11 3 6 1034.5 1034.7 0.0
27/01:00pm 11.6 8.8 5.3 65 2.9 WSW 9 17 5 9 1034.9 1035.1 0.0
27/12:30pm 11.5 8.6 4.5 62 3.1 SW 9 13 5 7 1035.2 1035.4 0.0
27/12:00pm 11.3 8.6 5.4 67 2.7 WSW 9 17 5 9 1035.4 1035.6 0.0
27/11:30am 11.0 8.8 6.0 71 2.3 N 7 13 4 7 1035.8 1036.0 0.0
27/11:00am 10.6 8.0 6.2 74 2.1 N 9 13 5 7 1035.9 1036.1 0.0
27/10:30am 10.4 7.7 7.5 82 1.4 NNE 11 15 6 8 1036.0 1036.2 0.0
27/10:00am 8.6 5.5 7.1 90 0.7 NNE 13 15 7 8 1035.9 1036.1 0.0
27/09:30am 6.8 3.3 5.6 92 0.5 NNE 13 15 7 8 1035.7 1035.9 0.0
27/09:00am 5.2 1.9 4.6 96 0.3 N 11 13 6 7 1035.4 1035.6 0.2
27/08:30am 3.7 0.2 3.4 98 0.1 N 11 15 6 8 1035.1 1035.3 0.2
27/08:00am 2.1 -2.5 1.8 98 0.1 N 15 17 8 9 1034.6 1034.8 0.2
27/07:30am 1.5 -2.4 1.2 98 0.1 N 11 15 6 8 1034.3 1034.5 0.2
27/07:00am 1.6 -2.7 1.3 98 0.1 N 13 17 7 9 1034.0 1034.2 0.0
27/06:30am 0.4 -4.4 0.1 98 0.1 N 15 17 8 9 1033.5 1033.7 0.0
27/06:00am 0.1 -3.6 -0.3 97 0.1 N 9 13 5 7 1033.1 1033.2 0.0
27/05:30am 0.4 -2.7 0.0 97 0.1 N 6 6 3 3 1032.8 1032.9 0.0
27/05:00am 0.7 -3.7 0.3 97 0.1 N 13 15 7 8 1032.4 1032.5 0.0
27/04:30am 0.5 -4.3 0.1 97 0.1 N 15 17 8 9 1032.3 1032.4 0.0
27/04:00am 0.4 -3.3 -0.2 96 0.2 NNW 9 13 5 7 1031.8 1032.0 0.0
27/03:30am 1.2 -1.8 0.6 96 0.2 NNW 6 7 3 4 1031.6 1031.8 0.0
27/03:00am 2.0 -1.1 1.6 97 0.2 NNW 7 9 4 5 1031.7 1031.9 0.0
27/02:30am 1.2 -2.1 0.3 94 0.3 NW 7 9 4 5 1031.6 1031.8 0.0
27/02:00am 2.9 0.1 1.9 93 0.4 SW 6 7 3 4 1031.6 1031.8 0.0
27/01:30am 3.4 0.5 2.5 94 0.4 WSW 7 11 4 6 1031.4 1031.6 0.0
27/01:00am 3.5 0.2 2.3 92 0.5 WSW 9 13 5 7 1031.1 1031.3 0.0
27/12:30am 3.9 0.3 2.7 92 0.5 WSW 11 13 6 7 1031.1 1031.3 0.0
27/12:00am 3.8 0.1 2.5 91 0.5 WSW 11 13 6 7 1030.9 1031.1 0.0
 
Date/Time
CST
Temp
°C
App
Temp
°C
Dew
Point
Rel
Hum
%
Delta-T
°C
Wind Press
QNH
hPa
Press
MSL
hPa
Rain
since 9 am
mm
Dir
 
Spd
km/h
Gust
km/h
Spd
kts
Gust
kts
26/11:30pm 4.7 2.0 2.9 88 0.7 SW 6 7 3 4 1030.8 1031.0 0.0
26/11:00pm 4.9 1.8 3.7 92 0.5 SW 9 9 5 5 1030.6 1030.8 0.0
26/10:30pm 4.4 1.2 3.2 92 0.5 WSW 9 11 5 6 1030.5 1030.7 0.0
26/10:00pm 4.5 1.3 3.0 90 0.6 WSW 9 13 5 7 1030.4 1030.6 0.0
26/09:30pm 4.8 2.0 3.3 90 0.6 SW 7 9 4 5 1030.0 1030.2 0.0
26/09:00pm 5.0 0.4 3.5 90 0.6 W 17 19 9 10 1029.8 1030.0 0.0
26/08:30pm 6.1 1.6 4.3 88 0.8 W 17 19 9 10 1029.6 1029.8 0.0
26/08:00pm 6.2 1.7 4.2 87 0.9 W 17 19 9 10 1029.2 1029.4 0.0
26/07:30pm 6.7 1.8 4.2 84 1.1 W 19 22 10 12 1028.9 1029.1 0.0
26/07:00pm 7.1 2.7 4.6 84 1.1 W 17 22 9 12 1028.5 1028.7 0.0
26/06:30pm 7.3 3.5 5.6 89 0.8 WSW 15 19 8 10 1028.1 1028.3 0.0
26/06:00pm 6.2 2.9 4.4 88 0.8 WSW 11 13 6 7 1027.7 1027.9 0.0
26/05:30pm 8.3 4.3 5.1 80 1.4 WSW 15 22 8 12 1027.3 1027.5 0.0
26/05:00pm 9.4 4.5 5.0 74 2.0 SW 20 28 11 15 1026.7 1026.9 0.0
26/04:30pm 9.7 4.5 5.7 76 1.8 WSW 22 32 12 17 1026.5 1026.7 0.0
26/04:00pm 11.3 6.0 5.2 66 2.8 WSW 22 30 12 16 1025.9 1026.1 0.0
26/03:30pm 11.3 6.0 5.2 66 2.8 SW 22 32 12 17 1025.7 1025.8 0.0
26/03:00pm 10.7 4.4 5.5 70 2.4 WSW 28 39 15 21 1025.6 1025.7 0.0
26/02:30pm 12.0 6.5 6.1 67 2.8 WSW 24 35 13 19 1025.2 1025.3 0.0
26/02:00pm 10.4 5.5 6.7 78 1.7 W 22 30 12 16 1025.2 1025.3 0.0
26/01:30pm 9.8 3.2 6.0 77 1.8 SW 30 46 16 25 1025.1 1025.2 0.0
26/01:00pm 10.8 4.8 5.1 68 2.6 W 26 35 14 19 1025.1 1025.2 0.0
26/12:33pm 10.4 3.7 7.3 81 1.5 SW 32 50 17 27 1025.2 1025.3 0.0
26/12:30pm 9.8 2.7 6.5 80 1.5 SW 33 50 18 27 1025.3 1025.4 0.0
26/12:23pm 10.7 4.5 6.1 73 2.2 SW 28 46 15 25 1025.1 1025.2 0.0
26/12:00pm 10.3 4.6 6.8 79 1.6 SW 26 35 14 19 1025.3 1025.4 0.0
26/11:38am 9.8 3.3 6.3 79 1.6 WSW 30 48 16 26 1025.4 1025.5 0.0
26/11:30am 10.7 6.2 6.8 77 1.8 WSW 20 35 11 19 1025.3 1025.4 0.0
26/11:00am 11.3 5.9 6.2 71 2.4 WSW 24 32 13 17 1025.3 1025.4 0.0
26/10:30am 10.9 5.2 6.5 74 2.1 SW 26 32 14 17 1024.7 1024.8 0.0

Other Formats:

Comma delimited format used in spreadsheet applications
http://www.bom.gov.au/fwo/IDS60801/IDS60801.95670.axf

JavaScript Object Notation format (JSON) in row-major order
http://www.bom.gov.au/fwo/IDS60801/IDS60801.95670.json